sensor_id;sensor_type;location;lat;lon;timestamp;P1;durP1;ratioP1;P2;durP2;ratioP2
5587;SDS011;2816;49.778;9.986;2023-09-08T00:01:18;5.70;;;4.00;;
5587;SDS011;2816;49.778;9.986;2023-09-08T00:03:45;7.33;;;4.10;;
5587;SDS011;2816;49.778;9.986;2023-09-08T00:06:11;7.67;;;4.20;;
5587;SDS011;2816;49.778;9.986;2023-09-08T00:08:38;12.60;;;3.60;;
5587;SDS011;2816;49.778;9.986;2023-09-08T00:11:05;8.47;;;4.57;;
5587;SDS011;2816;49.778;9.986;2023-09-08T00:13:34;9.60;;;4.53;;
5587;SDS011;2816;49.778;9.986;2023-09-08T00:16:00;7.83;;;4.80;;
5587;SDS011;2816;49.778;9.986;2023-09-08T00:18:27;5.20;;;4.00;;
5587;SDS011;2816;49.778;9.986;2023-09-08T00:20:54;10.07;;;3.90;;
5587;SDS011;2816;49.778;9.986;2023-09-08T00:23:21;6.17;;;4.70;;
5587;SDS011;2816;49.778;9.986;2023-09-08T00:25:48;7.17;;;4.87;;
5587;SDS011;2816;49.778;9.986;2023-09-08T00:28:15;5.80;;;4.10;;
5587;SDS011;2816;49.778;9.986;2023-09-08T00:30:44;7.33;;;4.77;;
5587;SDS011;2816;49.778;9.986;2023-09-08T00:33:10;7.27;;;4.50;;
5587;SDS011;2816;49.778;9.986;2023-09-08T00:35:38;5.10;;;4.13;;
5587;SDS011;2816;49.778;9.986;2023-09-08T00:38:06;8.10;;;4.40;;
5587;SDS011;2816;49.778;9.986;2023-09-08T00:40:33;5.50;;;4.57;;
5587;SDS011;2816;49.778;9.986;2023-09-08T00:43:00;7.30;;;4.37;;
5587;SDS011;2816;49.778;9.986;2023-09-08T00:45:27;6.90;;;4.47;;
5587;SDS011;2816;49.778;9.986;2023-09-08T00:47:57;5.03;;;4.50;;
5587;SDS011;2816;49.778;9.986;2023-09-08T00:50:24;9.40;;;4.30;;
5587;SDS011;2816;49.778;9.986;2023-09-08T00:52:51;7.57;;;4.47;;
5587;SDS011;2816;49.778;9.986;2023-09-08T00:55:18;4.43;;;3.77;;
5587;SDS011;2816;49.778;9.986;2023-09-08T00:57:45;7.57;;;4.60;;
5587;SDS011;2816;49.778;9.986;2023-09-08T01:00:13;7.17;;;4.00;;
5587;SDS011;2816;49.778;9.986;2023-09-08T01:02:40;6.33;;;4.10;;
5587;SDS011;2816;49.778;9.986;2023-09-08T01:05:11;5.33;;;4.60;;
5587;SDS011;2816;49.778;9.986;2023-09-08T01:07:39;11.23;;;4.63;;
5587;SDS011;2816;49.778;9.986;2023-09-08T01:10:08;4.60;;;3.70;;
5587;SDS011;2816;49.778;9.986;2023-09-08T01:12:35;7.90;;;4.70;;
5587;SDS011;2816;49.778;9.986;2023-09-08T01:15:02;9.27;;;4.63;;
5587;SDS011;2816;49.778;9.986;2023-09-08T01:17:30;5.87;;;4.70;;
5587;SDS011;2816;49.778;9.986;2023-09-08T01:19:59;7.03;;;4.60;;
5587;SDS011;2816;49.778;9.986;2023-09-08T01:22:39;8.50;;;4.40;;
5587;SDS011;2816;49.778;9.986;2023-09-08T01:25:19;4.50;;;4.10;;
5587;SDS011;2816;49.778;9.986;2023-09-08T01:27:48;5.93;;;4.23;;
5587;SDS011;2816;49.778;9.986;2023-09-08T01:30:17;4.67;;;3.73;;
5587;SDS011;2816;49.778;9.986;2023-09-08T01:32:45;7.93;;;4.03;;
5587;SDS011;2816;49.778;9.986;2023-09-08T01:35:12;5.40;;;4.47;;
5587;SDS011;2816;49.778;9.986;2023-09-08T01:37:40;5.73;;;3.93;;
5587;SDS011;2816;49.778;9.986;2023-09-08T01:40:08;5.23;;;4.30;;
5587;SDS011;2816;49.778;9.986;2023-09-08T01:42:37;6.47;;;5.10;;
5587;SDS011;2816;49.778;9.986;2023-09-08T01:45:05;5.60;;;4.50;;
5587;SDS011;2816;49.778;9.986;2023-09-08T01:47:34;6.30;;;4.00;;
5587;SDS011;2816;49.778;9.986;2023-09-08T01:50:01;4.70;;;3.90;;
5587;SDS011;2816;49.778;9.986;2023-09-08T01:52:29;5.20;;;4.17;;
5587;SDS011;2816;49.778;9.986;2023-09-08T01:54:56;6.23;;;4.60;;
5587;SDS011;2816;49.778;9.986;2023-09-08T01:57:23;8.90;;;4.63;;
5587;SDS011;2816;49.778;9.986;2023-09-08T01:59:51;5.30;;;4.10;;
5587;SDS011;2816;49.778;9.986;2023-09-08T02:02:18;6.40;;;3.97;;
5587;SDS011;2816;49.778;9.986;2023-09-08T02:04:44;5.90;;;4.67;;
5587;SDS011;2816;49.778;9.986;2023-09-08T02:07:11;7.10;;;4.10;;
5587;SDS011;2816;49.778;9.986;2023-09-08T02:09:38;6.90;;;5.00;;
5587;SDS011;2816;49.778;9.986;2023-09-08T02:12:05;5.30;;;4.23;;
5587;SDS011;2816;49.778;9.986;2023-09-08T02:14:32;6.27;;;4.50;;
5587;SDS011;2816;49.778;9.986;2023-09-08T02:17:01;6.63;;;4.50;;
5587;SDS011;2816;49.778;9.986;2023-09-08T02:19:28;7.90;;;4.70;;
5587;SDS011;2816;49.778;9.986;2023-09-08T02:21:55;6.23;;;4.33;;
5587;SDS011;2816;49.778;9.986;2023-09-08T02:24:22;10.43;;;4.37;;
5587;SDS011;2816;49.778;9.986;2023-09-08T02:26:49;6.40;;;4.37;;
5587;SDS011;2816;49.778;9.986;2023-09-08T02:29:16;6.73;;;4.00;;
5587;SDS011;2816;49.778;9.986;2023-09-08T02:31:43;6.40;;;4.20;;
5587;SDS011;2816;49.778;9.986;2023-09-08T02:34:11;7.83;;;4.43;;
5587;SDS011;2816;49.778;9.986;2023-09-08T02:36:38;4.87;;;4.40;;
5587;SDS011;2816;49.778;9.986;2023-09-08T02:39:05;6.90;;;4.20;;
5587;SDS011;2816;49.778;9.986;2023-09-08T02:41:32;5.00;;;4.50;;
5587;SDS011;2816;49.778;9.986;2023-09-08T02:44:00;7.53;;;5.03;;
5587;SDS011;2816;49.778;9.986;2023-09-08T02:46:26;5.20;;;4.40;;
5587;SDS011;2816;49.778;9.986;2023-09-08T02:48:53;7.37;;;4.50;;
5587;SDS011;2816;49.778;9.986;2023-09-08T02:51:22;7.30;;;4.53;;
5587;SDS011;2816;49.778;9.986;2023-09-08T02:53:48;6.97;;;4.63;;
5587;SDS011;2816;49.778;9.986;2023-09-08T02:56:15;9.33;;;4.73;;
5587;SDS011;2816;49.778;9.986;2023-09-08T02:58:42;11.23;;;4.27;;
5587;SDS011;2816;49.778;9.986;2023-09-08T03:01:10;5.93;;;4.20;;
5587;SDS011;2816;49.778;9.986;2023-09-08T03:03:39;8.13;;;5.37;;
5587;SDS011;2816;49.778;9.986;2023-09-08T03:06:06;5.50;;;4.77;;
5587;SDS011;2816;49.778;9.986;2023-09-08T03:08:35;9.80;;;5.20;;
5587;SDS011;2816;49.778;9.986;2023-09-08T03:11:03;5.07;;;4.57;;
5587;SDS011;2816;49.778;9.986;2023-09-08T03:13:31;6.97;;;4.50;;
5587;SDS011;2816;49.778;9.986;2023-09-08T03:16:01;6.27;;;4.70;;
5587;SDS011;2816;49.778;9.986;2023-09-08T03:18:29;4.83;;;4.23;;
5587;SDS011;2816;49.778;9.986;2023-09-08T03:20:57;10.20;;;5.27;;
5587;SDS011;2816;49.778;9.986;2023-09-08T03:23:25;6.13;;;4.80;;
5587;SDS011;2816;49.778;9.986;2023-09-08T03:25:53;7.50;;;5.27;;
5587;SDS011;2816;49.778;9.986;2023-09-08T03:28:20;7.13;;;5.23;;
5587;SDS011;2816;49.778;9.986;2023-09-08T03:30:47;11.40;;;5.93;;
5587;SDS011;2816;49.778;9.986;2023-09-08T03:33:14;6.60;;;4.70;;
5587;SDS011;2816;49.778;9.986;2023-09-08T03:35:41;8.57;;;4.80;;
5587;SDS011;2816;49.778;9.986;2023-09-08T03:38:08;7.23;;;4.80;;
5587;SDS011;2816;49.778;9.986;2023-09-08T03:40:34;6.50;;;5.20;;
5587;SDS011;2816;49.778;9.986;2023-09-08T03:43:04;8.53;;;4.77;;
5587;SDS011;2816;49.778;9.986;2023-09-08T03:45:31;8.03;;;5.40;;
5587;SDS011;2816;49.778;9.986;2023-09-08T03:47:58;7.87;;;5.20;;
5587;SDS011;2816;49.778;9.986;2023-09-08T03:50:25;14.03;;;5.47;;
5587;SDS011;2816;49.778;9.986;2023-09-08T03:52:52;9.50;;;5.80;;
5587;SDS011;2816;49.778;9.986;2023-09-08T03:55:19;8.63;;;5.30;;
5587;SDS011;2816;49.778;9.986;2023-09-08T03:57:46;6.47;;;5.17;;
5587;SDS011;2816;49.778;9.986;2023-09-08T04:00:15;6.63;;;5.40;;
5587;SDS011;2816;49.778;9.986;2023-09-08T04:02:47;9.40;;;5.50;;
5587;SDS011;2816;49.778;9.986;2023-09-08T04:05:14;15.60;;;5.97;;
5587;SDS011;2816;49.778;9.986;2023-09-08T04:07:42;9.57;;;5.40;;
5587;SDS011;2816;49.778;9.986;2023-09-08T04:10:09;6.60;;;4.87;;
5587;SDS011;2816;49.778;9.986;2023-09-08T04:12:36;10.40;;;6.37;;
5587;SDS011;2816;49.778;9.986;2023-09-08T04:15:03;6.37;;;5.20;;
5587;SDS011;2816;49.778;9.986;2023-09-08T04:17:32;11.30;;;5.60;;
5587;SDS011;2816;49.778;9.986;2023-09-08T04:19:58;7.53;;;5.30;;
5587;SDS011;2816;49.778;9.986;2023-09-08T04:22:25;10.50;;;5.80;;
5587;SDS011;2816;49.778;9.986;2023-09-08T04:24:52;10.17;;;5.20;;
5587;SDS011;2816;49.778;9.986;2023-09-08T04:27:20;9.60;;;5.33;;
5587;SDS011;2816;49.778;9.986;2023-09-08T04:29:47;5.87;;;5.13;;
5587;SDS011;2816;49.778;9.986;2023-09-08T04:32:14;11.30;;;5.63;;
5587;SDS011;2816;49.778;9.986;2023-09-08T04:34:42;5.80;;;4.80;;
5587;SDS011;2816;49.778;9.986;2023-09-08T04:37:09;8.33;;;5.00;;
5587;SDS011;2816;49.778;9.986;2023-09-08T04:39:36;5.17;;;4.67;;
5587;SDS011;2816;49.778;9.986;2023-09-08T04:42:03;10.23;;;5.77;;
5587;SDS011;2816;49.778;9.986;2023-09-08T04:44:30;6.63;;;5.03;;
5587;SDS011;2816;49.778;9.986;2023-09-08T04:46:57;7.13;;;5.60;;
5587;SDS011;2816;49.778;9.986;2023-09-08T04:49:24;10.27;;;5.80;;
5587;SDS011;2816;49.778;9.986;2023-09-08T04:51:53;8.60;;;5.20;;
5587;SDS011;2816;49.778;9.986;2023-09-08T04:54:20;7.97;;;6.07;;
5587;SDS011;2816;49.778;9.986;2023-09-08T04:56:47;6.07;;;5.33;;
5587;SDS011;2816;49.778;9.986;2023-09-08T04:59:14;8.30;;;5.30;;
5587;SDS011;2816;49.778;9.986;2023-09-08T05:01:41;9.13;;;5.23;;
5587;SDS011;2816;49.778;9.986;2023-09-08T05:04:08;7.00;;;5.20;;
5587;SDS011;2816;49.778;9.986;2023-09-08T05:06:35;11.13;;;5.80;;
5587;SDS011;2816;49.778;9.986;2023-09-08T05:09:04;7.40;;;5.20;;
5587;SDS011;2816;49.778;9.986;2023-09-08T05:11:32;8.50;;;5.83;;
5587;SDS011;2816;49.778;9.986;2023-09-08T05:13:59;8.00;;;5.63;;
5587;SDS011;2816;49.778;9.986;2023-09-08T05:16:25;9.90;;;5.20;;
5587;SDS011;2816;49.778;9.986;2023-09-08T05:19:02;8.13;;;5.63;;
5587;SDS011;2816;49.778;9.986;2023-09-08T05:21:30;8.20;;;5.77;;
5587;SDS011;2816;49.778;9.986;2023-09-08T05:23:57;10.00;;;5.60;;
5587;SDS011;2816;49.778;9.986;2023-09-08T05:26:25;13.23;;;6.63;;
5587;SDS011;2816;49.778;9.986;2023-09-08T05:28:52;9.83;;;5.73;;
5587;SDS011;2816;49.778;9.986;2023-09-08T05:31:19;8.53;;;6.20;;
5587;SDS011;2816;49.778;9.986;2023-09-08T05:33:46;14.03;;;5.90;;
5587;SDS011;2816;49.778;9.986;2023-09-08T05:36:13;8.37;;;5.30;;
5587;SDS011;2816;49.778;9.986;2023-09-08T05:38:40;10.53;;;5.67;;
5587;SDS011;2816;49.778;9.986;2023-09-08T05:41:07;11.57;;;5.40;;
5587;SDS011;2816;49.778;9.986;2023-09-08T05:43:35;11.57;;;5.77;;
5587;SDS011;2816;49.778;9.986;2023-09-08T05:46:02;9.90;;;5.57;;
5587;SDS011;2816;49.778;9.986;2023-09-08T05:48:29;9.07;;;6.60;;
5587;SDS011;2816;49.778;9.986;2023-09-08T05:50:56;7.50;;;5.23;;
5587;SDS011;2816;49.778;9.986;2023-09-08T05:53:23;10.13;;;5.23;;
5587;SDS011;2816;49.778;9.986;2023-09-08T05:55:50;7.50;;;5.57;;
5587;SDS011;2816;49.778;9.986;2023-09-08T05:58:17;8.97;;;5.67;;
5587;SDS011;2816;49.778;9.986;2023-09-08T06:00:46;9.33;;;5.23;;
5587;SDS011;2816;49.778;9.986;2023-09-08T06:03:13;8.70;;;5.00;;
5587;SDS011;2816;49.778;9.986;2023-09-08T06:05:39;7.47;;;5.90;;
5587;SDS011;2816;49.778;9.986;2023-09-08T06:08:06;8.93;;;5.63;;
5587;SDS011;2816;49.778;9.986;2023-09-08T06:10:33;9.50;;;5.77;;
5587;SDS011;2816;49.778;9.986;2023-09-08T06:13:00;7.13;;;5.43;;
5587;SDS011;2816;49.778;9.986;2023-09-08T06:15:27;9.90;;;6.20;;
5587;SDS011;2816;49.778;9.986;2023-09-08T06:17:56;10.87;;;6.03;;
5587;SDS011;2816;49.778;9.986;2023-09-08T06:20:23;12.40;;;5.83;;
5587;SDS011;2816;49.778;9.986;2023-09-08T06:22:51;10.57;;;6.30;;
5587;SDS011;2816;49.778;9.986;2023-09-08T06:25:18;9.97;;;6.77;;
5587;SDS011;2816;49.778;9.986;2023-09-08T06:27:45;16.83;;;7.20;;
5587;SDS011;2816;49.778;9.986;2023-09-08T06:30:12;12.13;;;6.50;;
5587;SDS011;2816;49.778;9.986;2023-09-08T06:32:41;11.57;;;6.27;;
5587;SDS011;2816;49.778;9.986;2023-09-08T06:35:11;13.60;;;6.67;;
5587;SDS011;2816;49.778;9.986;2023-09-08T06:37:38;8.80;;;6.70;;
5587;SDS011;2816;49.778;9.986;2023-09-08T06:40:05;13.30;;;6.97;;
5587;SDS011;2816;49.778;9.986;2023-09-08T06:42:33;7.87;;;6.43;;
5587;SDS011;2816;49.778;9.986;2023-09-08T06:45:00;9.00;;;6.53;;
5587;SDS011;2816;49.778;9.986;2023-09-08T06:47:26;8.93;;;6.73;;
5587;SDS011;2816;49.778;9.986;2023-09-08T06:49:53;8.20;;;6.60;;
5587;SDS011;2816;49.778;9.986;2023-09-08T06:52:22;10.80;;;7.10;;
5587;SDS011;2816;49.778;9.986;2023-09-08T06:54:48;11.20;;;6.57;;
5587;SDS011;2816;49.778;9.986;2023-09-08T06:57:17;9.47;;;6.60;;
5587;SDS011;2816;49.778;9.986;2023-09-08T06:59:46;8.97;;;6.40;;
5587;SDS011;2816;49.778;9.986;2023-09-08T07:02:12;8.23;;;6.50;;
5587;SDS011;2816;49.778;9.986;2023-09-08T07:04:39;14.30;;;7.20;;
5587;SDS011;2816;49.778;9.986;2023-09-08T07:07:06;17.73;;;6.50;;
5587;SDS011;2816;49.778;9.986;2023-09-08T07:09:35;18.83;;;7.27;;
5587;SDS011;2816;49.778;9.986;2023-09-08T07:12:03;15.40;;;6.60;;
5587;SDS011;2816;49.778;9.986;2023-09-08T07:14:30;13.60;;;6.70;;
5587;SDS011;2816;49.778;9.986;2023-09-08T07:16:57;10.73;;;6.20;;
5587;SDS011;2816;49.778;9.986;2023-09-08T07:19:24;11.23;;;6.43;;
5587;SDS011;2816;49.778;9.986;2023-09-08T07:21:52;16.77;;;6.93;;
5587;SDS011;2816;49.778;9.986;2023-09-08T07:24:18;19.00;;;6.70;;
5587;SDS011;2816;49.778;9.986;2023-09-08T07:26:47;20.40;;;7.03;;
5587;SDS011;2816;49.778;9.986;2023-09-08T07:29:14;22.10;;;7.13;;
5587;SDS011;2816;49.778;9.986;2023-09-08T07:31:41;8.30;;;6.27;;
5587;SDS011;2816;49.778;9.986;2023-09-08T07:34:07;8.60;;;5.50;;
5587;SDS011;2816;49.778;9.986;2023-09-08T07:36:35;11.20;;;5.43;;
5587;SDS011;2816;49.778;9.986;2023-09-08T07:39:02;8.97;;;5.50;;
5587;SDS011;2816;49.778;9.986;2023-09-08T07:41:30;7.93;;;5.13;;
5587;SDS011;2816;49.778;9.986;2023-09-08T07:43:58;8.67;;;5.23;;
5587;SDS011;2816;49.778;9.986;2023-09-08T07:46:25;9.13;;;5.47;;
5587;SDS011;2816;49.778;9.986;2023-09-08T07:48:52;8.77;;;5.50;;
5587;SDS011;2816;49.778;9.986;2023-09-08T07:51:19;7.13;;;4.60;;
5587;SDS011;2816;49.778;9.986;2023-09-08T07:53:45;8.00;;;5.30;;
5587;SDS011;2816;49.778;9.986;2023-09-08T07:56:12;6.63;;;5.30;;
5587;SDS011;2816;49.778;9.986;2023-09-08T07:58:39;5.23;;;4.60;;
5587;SDS011;2816;49.778;9.986;2023-09-08T08:01:07;5.57;;;4.80;;
5587;SDS011;2816;49.778;9.986;2023-09-08T08:03:34;9.30;;;4.70;;
5587;SDS011;2816;49.778;9.986;2023-09-08T08:06:01;5.60;;;4.83;;
5587;SDS011;2816;49.778;9.986;2023-09-08T08:08:28;8.83;;;5.30;;
5587;SDS011;2816;49.778;9.986;2023-09-08T08:10:55;7.57;;;4.50;;
5587;SDS011;2816;49.778;9.986;2023-09-08T08:13:22;6.30;;;4.37;;
5587;SDS011;2816;49.778;9.986;2023-09-08T08:15:49;8.83;;;4.70;;
5587;SDS011;2816;49.778;9.986;2023-09-08T08:18:17;7.37;;;4.20;;
5587;SDS011;2816;49.778;9.986;2023-09-08T08:20:44;5.33;;;4.30;;
5587;SDS011;2816;49.778;9.986;2023-09-08T08:23:11;5.57;;;4.10;;
5587;SDS011;2816;49.778;9.986;2023-09-08T08:25:38;9.93;;;4.67;;
5587;SDS011;2816;49.778;9.986;2023-09-08T08:28:05;5.40;;;4.90;;
5587;SDS011;2816;49.778;9.986;2023-09-08T08:30:32;6.23;;;4.33;;
5587;SDS011;2816;49.778;9.986;2023-09-08T08:33:00;7.33;;;4.33;;
5587;SDS011;2816;49.778;9.986;2023-09-08T08:35:30;9.83;;;4.80;;
5587;SDS011;2816;49.778;9.986;2023-09-08T08:37:57;6.03;;;3.90;;
5587;SDS011;2816;49.778;9.986;2023-09-08T08:40:24;5.60;;;4.47;;
5587;SDS011;2816;49.778;9.986;2023-09-08T08:42:54;4.83;;;3.93;;
5587;SDS011;2816;49.778;9.986;2023-09-08T08:45:21;9.67;;;4.10;;
5587;SDS011;2816;49.778;9.986;2023-09-08T08:47:49;4.43;;;3.90;;
5587;SDS011;2816;49.778;9.986;2023-09-08T08:50:17;5.93;;;3.80;;
5587;SDS011;2816;49.778;9.986;2023-09-08T08:52:46;4.13;;;3.70;;
5587;SDS011;2816;49.778;9.986;2023-09-08T08:55:13;6.20;;;4.03;;
5587;SDS011;2816;49.778;9.986;2023-09-08T08:57:40;5.03;;;4.30;;
5587;SDS011;2816;49.778;9.986;2023-09-08T09:00:08;6.70;;;4.40;;
5587;SDS011;2816;49.778;9.986;2023-09-08T09:02:38;5.60;;;4.27;;
5587;SDS011;2816;49.778;9.986;2023-09-08T09:05:06;7.10;;;4.33;;
5587;SDS011;2816;49.778;9.986;2023-09-08T09:07:34;6.10;;;4.20;;
5587;SDS011;2816;49.778;9.986;2023-09-08T09:10:04;6.70;;;4.67;;
5587;SDS011;2816;49.778;9.986;2023-09-08T09:12:32;4.77;;;4.10;;
5587;SDS011;2816;49.778;9.986;2023-09-08T09:14:59;4.87;;;4.27;;
5587;SDS011;2816;49.778;9.986;2023-09-08T09:17:29;9.23;;;4.70;;
5587;SDS011;2816;49.778;9.986;2023-09-08T09:22:38;4.13;;;3.67;;
5587;SDS011;2816;49.778;9.986;2023-09-08T09:25:07;4.90;;;4.07;;
5587;SDS011;2816;49.778;9.986;2023-09-08T09:27:35;8.17;;;4.17;;
5587;SDS011;2816;49.778;9.986;2023-09-08T09:30:06;8.17;;;4.40;;
5587;SDS011;2816;49.778;9.986;2023-09-08T09:32:34;5.13;;;4.47;;
5587;SDS011;2816;49.778;9.986;2023-09-08T09:35:01;12.13;;;4.40;;
5587;SDS011;2816;49.778;9.986;2023-09-08T09:37:29;4.27;;;3.87;;
5587;SDS011;2816;49.778;9.986;2023-09-08T09:39:56;13.07;;;4.50;;
5587;SDS011;2816;49.778;9.986;2023-09-08T09:42:24;5.07;;;3.70;;
5587;SDS011;2816;49.778;9.986;2023-09-08T09:44:54;7.53;;;4.43;;
5587;SDS011;2816;49.778;9.986;2023-09-08T09:47:21;7.73;;;4.20;;
5587;SDS011;2816;49.778;9.986;2023-09-08T09:49:48;5.30;;;4.13;;
5587;SDS011;2816;49.778;9.986;2023-09-08T09:52:20;4.87;;;4.20;;
5587;SDS011;2816;49.778;9.986;2023-09-08T09:54:48;5.83;;;3.93;;
5587;SDS011;2816;49.778;9.986;2023-09-08T09:57:16;4.80;;;4.30;;
5587;SDS011;2816;49.778;9.986;2023-09-08T09:59:49;8.17;;;4.10;;
5587;SDS011;2816;49.778;9.986;2023-09-08T10:02:18;5.07;;;4.57;;
5587;SDS011;2816;49.778;9.986;2023-09-08T10:04:47;8.23;;;4.07;;
5587;SDS011;2816;49.778;9.986;2023-09-08T10:07:15;6.20;;;4.23;;
5587;SDS011;2816;49.778;9.986;2023-09-08T10:09:42;4.33;;;3.93;;
5587;SDS011;2816;49.778;9.986;2023-09-08T10:12:09;4.30;;;3.90;;
5587;SDS011;2816;49.778;9.986;2023-09-08T10:14:40;4.20;;;3.80;;
5587;SDS011;2816;49.778;9.986;2023-09-08T10:17:15;4.77;;;3.80;;
5587;SDS011;2816;49.778;9.986;2023-09-08T10:19:47;4.40;;;3.60;;
5587;SDS011;2816;49.778;9.986;2023-09-08T10:22:19;8.40;;;3.70;;
5587;SDS011;2816;49.778;9.986;2023-09-08T10:24:49;4.97;;;3.70;;
5587;SDS011;2816;49.778;9.986;2023-09-08T10:27:16;4.10;;;3.67;;
5587;SDS011;2816;49.778;9.986;2023-09-08T10:29:46;4.30;;;3.90;;
5587;SDS011;2816;49.778;9.986;2023-09-08T10:32:15;4.70;;;4.10;;
5587;SDS011;2816;49.778;9.986;2023-09-08T10:34:44;5.63;;;3.53;;
5587;SDS011;2816;49.778;9.986;2023-09-08T10:37:20;6.10;;;3.90;;
5587;SDS011;2816;49.778;9.986;2023-09-08T10:39:47;3.63;;;3.20;;
5587;SDS011;2816;49.778;9.986;2023-09-08T10:42:24;5.93;;;3.80;;
5587;SDS011;2816;49.778;9.986;2023-09-08T10:45:00;4.20;;;3.80;;
5587;SDS011;2816;49.778;9.986;2023-09-08T10:47:55;4.67;;;3.33;;
5587;SDS011;2816;49.778;9.986;2023-09-08T10:50:26;9.00;;;3.43;;
5587;SDS011;2816;49.778;9.986;2023-09-08T10:53:16;5.50;;;3.53;;
5587;SDS011;2816;49.778;9.986;2023-09-08T10:55:44;4.30;;;3.87;;
5587;SDS011;2816;49.778;9.986;2023-09-08T10:58:20;5.77;;;3.40;;
5587;SDS011;2816;49.778;9.986;2023-09-08T11:00:54;3.53;;;3.20;;
5587;SDS011;2816;49.778;9.986;2023-09-08T11:03:29;5.37;;;3.33;;
5587;SDS011;2816;49.778;9.986;2023-09-08T11:06:09;5.80;;;2.93;;
5587;SDS011;2816;49.778;9.986;2023-09-08T11:08:38;6.97;;;3.33;;
5587;SDS011;2816;49.778;9.986;2023-09-08T11:11:06;4.87;;;2.90;;
5587;SDS011;2816;49.778;9.986;2023-09-08T11:13:33;5.10;;;3.50;;
5587;SDS011;2816;49.778;9.986;2023-09-08T11:16:01;4.40;;;3.40;;
5587;SDS011;2816;49.778;9.986;2023-09-08T11:18:30;3.90;;;3.50;;
5587;SDS011;2816;49.778;9.986;2023-09-08T11:20:58;3.80;;;3.07;;
5587;SDS011;2816;49.778;9.986;2023-09-08T11:23:26;5.57;;;3.10;;
5587;SDS011;2816;49.778;9.986;2023-09-08T11:25:54;8.70;;;3.67;;
5587;SDS011;2816;49.778;9.986;2023-09-08T11:28:21;4.17;;;3.77;;
5587;SDS011;2816;49.778;9.986;2023-09-08T11:30:48;8.80;;;3.17;;
5587;SDS011;2816;49.778;9.986;2023-09-08T11:33:16;3.33;;;2.70;;
5587;SDS011;2816;49.778;9.986;2023-09-08T11:35:46;4.80;;;3.10;;
5587;SDS011;2816;49.778;9.986;2023-09-08T11:38:13;3.33;;;3.07;;
5587;SDS011;2816;49.778;9.986;2023-09-08T11:40:40;7.43;;;3.20;;
5587;SDS011;2816;49.778;9.986;2023-09-08T11:43:08;12.53;;;3.37;;
5587;SDS011;2816;49.778;9.986;2023-09-08T11:45:34;6.07;;;3.67;;
5587;SDS011;2816;49.778;9.986;2023-09-08T11:48:02;7.20;;;3.20;;
5587;SDS011;2816;49.778;9.986;2023-09-08T11:50:30;3.30;;;2.90;;
5587;SDS011;2816;49.778;9.986;2023-09-08T11:52:59;5.53;;;3.07;;
5587;SDS011;2816;49.778;9.986;2023-09-08T11:55:27;4.63;;;3.03;;
5587;SDS011;2816;49.778;9.986;2023-09-08T11:57:55;4.80;;;3.50;;
5587;SDS011;2816;49.778;9.986;2023-09-08T12:00:24;3.60;;;3.30;;
5587;SDS011;2816;49.778;9.986;2023-09-08T12:02:52;9.07;;;3.10;;
5587;SDS011;2816;49.778;9.986;2023-09-08T12:05:20;4.33;;;3.00;;
5587;SDS011;2816;49.778;9.986;2023-09-08T12:07:49;5.67;;;3.50;;
5587;SDS011;2816;49.778;9.986;2023-09-08T12:10:17;5.90;;;3.53;;
5587;SDS011;2816;49.778;9.986;2023-09-08T12:12:45;3.83;;;3.10;;
5587;SDS011;2816;49.778;9.986;2023-09-08T12:18:01;3.20;;;2.90;;
5587;SDS011;2816;49.778;9.986;2023-09-08T12:20:29;5.70;;;3.20;;
5587;SDS011;2816;49.778;9.986;2023-09-08T12:22:57;3.30;;;3.00;;
5587;SDS011;2816;49.778;9.986;2023-09-08T12:25:25;4.63;;;2.80;;
5587;SDS011;2816;49.778;9.986;2023-09-08T12:27:53;4.90;;;3.27;;
5587;SDS011;2816;49.778;9.986;2023-09-08T12:30:21;4.07;;;2.97;;
5587;SDS011;2816;49.778;9.986;2023-09-08T12:32:55;3.50;;;3.20;;
5587;SDS011;2816;49.778;9.986;2023-09-08T12:35:22;3.40;;;3.10;;
5587;SDS011;2816;49.778;9.986;2023-09-08T12:37:52;3.20;;;2.90;;
5587;SDS011;2816;49.778;9.986;2023-09-08T12:40:20;4.90;;;3.50;;
5587;SDS011;2816;49.778;9.986;2023-09-08T12:42:48;3.30;;;3.00;;
5587;SDS011;2816;49.778;9.986;2023-09-08T12:45:15;4.03;;;3.40;;
5587;SDS011;2816;49.778;9.986;2023-09-08T12:47:42;3.70;;;3.40;;
5587;SDS011;2816;49.778;9.986;2023-09-08T12:50:09;3.90;;;3.20;;
5587;SDS011;2816;49.778;9.986;2023-09-08T12:52:38;3.53;;;3.17;;
5587;SDS011;2816;49.778;9.986;2023-09-08T12:55:05;3.00;;;2.70;;
5587;SDS011;2816;49.778;9.986;2023-09-08T12:57:32;3.10;;;2.77;;
5587;SDS011;2816;49.778;9.986;2023-09-08T13:00:01;2.87;;;2.50;;
5587;SDS011;2816;49.778;9.986;2023-09-08T13:02:28;2.70;;;2.50;;
5587;SDS011;2816;49.778;9.986;2023-09-08T13:04:55;4.40;;;3.33;;
5587;SDS011;2816;49.778;9.986;2023-09-08T13:07:23;4.33;;;2.97;;
5587;SDS011;2816;49.778;9.986;2023-09-08T13:09:51;2.70;;;2.50;;
5587;SDS011;2816;49.778;9.986;2023-09-08T13:12:18;4.40;;;3.13;;
5587;SDS011;2816;49.778;9.986;2023-09-08T13:14:45;5.00;;;3.00;;
5587;SDS011;2816;49.778;9.986;2023-09-08T13:17:13;5.20;;;2.90;;
5587;SDS011;2816;49.778;9.986;2023-09-08T13:19:41;2.93;;;2.70;;
5587;SDS011;2816;49.778;9.986;2023-09-08T13:22:08;6.80;;;3.23;;
5587;SDS011;2816;49.778;9.986;2023-09-08T13:24:35;3.93;;;2.77;;
5587;SDS011;2816;49.778;9.986;2023-09-08T13:27:03;2.93;;;2.70;;
5587;SDS011;2816;49.778;9.986;2023-09-08T13:29:30;5.00;;;2.93;;
5587;SDS011;2816;49.778;9.986;2023-09-08T13:31:57;3.10;;;2.87;;
5587;SDS011;2816;49.778;9.986;2023-09-08T13:34:25;3.80;;;3.30;;
5587;SDS011;2816;49.778;9.986;2023-09-08T13:36:52;3.00;;;2.80;;
5587;SDS011;2816;49.778;9.986;2023-09-08T13:39:19;5.73;;;2.60;;
5587;SDS011;2816;49.778;9.986;2023-09-08T13:41:46;3.30;;;2.80;;
5587;SDS011;2816;49.778;9.986;2023-09-08T13:44:15;6.60;;;2.90;;
5587;SDS011;2816;49.778;9.986;2023-09-08T13:46:42;3.37;;;2.60;;
5587;SDS011;2816;49.778;9.986;2023-09-08T13:49:09;4.37;;;2.70;;
5587;SDS011;2816;49.778;9.986;2023-09-08T13:51:37;2.70;;;2.50;;
5587;SDS011;2816;49.778;9.986;2023-09-08T13:54:04;4.03;;;3.00;;
5587;SDS011;2816;49.778;9.986;2023-09-08T13:56:32;3.17;;;2.80;;
5587;SDS011;2816;49.778;9.986;2023-09-08T13:58:59;5.33;;;3.20;;
5587;SDS011;2816;49.778;9.986;2023-09-08T14:01:26;3.40;;;2.90;;
5587;SDS011;2816;49.778;9.986;2023-09-08T14:03:54;6.90;;;3.47;;
5587;SDS011;2816;49.778;9.986;2023-09-08T14:06:21;3.03;;;2.80;;
5587;SDS011;2816;49.778;9.986;2023-09-08T14:08:50;3.33;;;2.80;;
5587;SDS011;2816;49.778;9.986;2023-09-08T14:11:17;3.93;;;2.50;;
5587;SDS011;2816;49.778;9.986;2023-09-08T14:13:44;2.70;;;2.50;;
5587;SDS011;2816;49.778;9.986;2023-09-08T14:16:11;3.00;;;2.80;;
5587;SDS011;2816;49.778;9.986;2023-09-08T14:18:38;3.13;;;2.80;;
5587;SDS011;2816;49.778;9.986;2023-09-08T14:21:05;3.30;;;3.10;;
5587;SDS011;2816;49.778;9.986;2023-09-08T14:23:32;3.40;;;2.90;;
5587;SDS011;2816;49.778;9.986;2023-09-08T14:26:01;3.43;;;2.90;;
5587;SDS011;2816;49.778;9.986;2023-09-08T14:28:28;4.33;;;2.80;;
5587;SDS011;2816;49.778;9.986;2023-09-08T14:30:57;4.67;;;3.00;;
5587;SDS011;2816;49.778;9.986;2023-09-08T14:33:24;4.00;;;2.50;;
5587;SDS011;2816;49.778;9.986;2023-09-08T14:35:51;4.03;;;3.10;;
5587;SDS011;2816;49.778;9.986;2023-09-08T14:38:19;3.10;;;2.80;;
5587;SDS011;2816;49.778;9.986;2023-09-08T14:40:53;6.13;;;2.90;;
5587;SDS011;2816;49.778;9.986;2023-09-08T14:43:22;4.93;;;2.90;;
5587;SDS011;2816;49.778;9.986;2023-09-08T14:45:50;3.30;;;2.67;;
5587;SDS011;2816;49.778;9.986;2023-09-08T14:48:17;9.23;;;3.37;;
5587;SDS011;2816;49.778;9.986;2023-09-08T14:50:44;2.80;;;2.60;;
5587;SDS011;2816;49.778;9.986;2023-09-08T14:53:11;7.20;;;3.00;;
5587;SDS011;2816;49.778;9.986;2023-09-08T14:55:38;5.70;;;3.50;;
5587;SDS011;2816;49.778;9.986;2023-09-08T14:58:05;9.47;;;3.00;;
5587;SDS011;2816;49.778;9.986;2023-09-08T15:00:33;3.47;;;2.77;;
5587;SDS011;2816;49.778;9.986;2023-09-08T15:03:00;4.70;;;2.70;;
5587;SDS011;2816;49.778;9.986;2023-09-08T15:05:29;3.77;;;3.00;;
5587;SDS011;2816;49.778;9.986;2023-09-08T15:07:56;6.70;;;2.83;;
5587;SDS011;2816;49.778;9.986;2023-09-08T15:10:23;2.77;;;2.57;;
5587;SDS011;2816;49.778;9.986;2023-09-08T15:12:50;4.27;;;2.97;;
5587;SDS011;2816;49.778;9.986;2023-09-08T15:15:17;3.20;;;2.87;;
5587;SDS011;2816;49.778;9.986;2023-09-08T15:17:50;6.20;;;2.90;;
5587;SDS011;2816;49.778;9.986;2023-09-08T15:20:17;3.27;;;2.70;;
5587;SDS011;2816;49.778;9.986;2023-09-08T15:22:44;3.23;;;2.93;;